• Join FlightAware (Why Join?)
  • Login
  • US Flag 
01:00PM EDT


 

Airport Tracker/Info


-or-


 

Live Flight TrackerFlight Track Log ✈ UAL4670 ✈ 25-Mar-2014 ✈ KEWR - CYYT

Flight Track Log - Related Links

Times and Time Zones

All times are in EDT time to prevent confusion due to time zone crossing. See the UAL4670 flight status page for this flight to view local times or setup timezone preferences in your user account.

Time Position Orientation Groundspeed Altitude Reporting Facility
EDT Latitude Longitude Course Direction KTS MPH feet Rate Location/Type
05:32PM 40.6333 -74.2000 57° Northeast 177 204 1,800  Level New York TRACON
05:33PM 40.6500 -74.2500 294° West 255 293 4,300 2,220 Climbing New York TRACON
05:34PM 40.7000 -74.2000 37° Northeast 254 292 6,500 2,280 Climbing New York TRACON
05:35PM 41.0250 -73.6666 56° Northeast  Level FlightAware Approximate
05:35PM 40.7333 -74.1000 66° East 281 323 8,900  Level New York TRACON
05:36PM 41.1056 -73.5289 46° Northeast  Level FlightAware Approximate
05:36PM 40.7667 -74.0167 62° Northeast 313 360 10,000  Level New York TRACON
05:37PM 41.1908 -73.3954 53° Northeast  Level FlightAware Approximate
05:37PM 40.8167 -73.9000 60° Northeast 364 419 10,000  Level New York TRACON
05:38PM 40.7652 -74.0363 57° Northeast  Level FlightAware Approximate
05:39PM 40.9269 -73.7594 44° Northeast 383 441 11,900  Level Boston Center
05:40PM 41.0136 -73.6378 47° Northeast 392 451 13,900 1,800 Climbing Boston Center
05:41PM 41.0981 -73.5244 45° Northeast 399 459 15,600 1,560 Climbing Boston Center
05:42PM 41.1769 -73.4181 45° Northeast 404 465 17,200 1,500 Climbing Boston Center
05:43PM 41.2561 -73.3097 46° Northeast 408 470 18,800 1,560 Climbing Boston Center
05:44PM 41.3381 -73.1983 46° Northeast 416 479 20,400 1,500 Climbing Boston Center
05:45PM 41.4106 -73.0744 52° Northeast 418 481 22,000 1,500 Climbing Boston Center
05:46PM 41.4706 -72.9367 60° Northeast 423 487 23,500 1,380 Climbing Boston Center
05:47PM 41.5322 -72.7956 60° Northeast 435 501 24,900 1,320 Climbing Boston Center
05:48PM 41.5967 -72.6522 59° Northeast 443 510 26,300 1,320 Climbing Boston Center
05:49PM 41.6603 -72.5069 60° Northeast 451 519 27,700 1,320 Climbing Boston Center
05:50PM 41.7244 -72.3631 59° Northeast 454 522 29,100 1,320 Climbing Boston Center
05:51PM 41.7872 -72.2228 59° Northeast 446 513 30,500 900 Climbing Boston Center
05:52PM 41.8647 -72.0481 59° Northeast 454 522 31,000 240 Climbing Boston Center
05:53PM 41.9347 -71.8892 59° Northeast 490 564 31,000  Level Boston Center
05:54PM 42.0114 -71.7225 58° Northeast 522 601 31,000 360 Level Boston Center
05:55PM 42.0928 -71.5528 57° Northeast 538 619 31,800 900 Climbing Boston Center
05:56PM 42.1717 -71.3856 57° Northeast 536 617 32,900 540 Climbing Boston Center
05:57PM 42.2492 -71.2172 58° Northeast 532 612 33,000  Climbing Boston Center
05:58PM 42.3394 -71.0267 57° Northeast 537 618 33,000  Level Boston Center
05:59PM 42.4081 -70.8467 63° Northeast 537 618 33,000 420 Level Boston Center
06:00PM 42.4764 -70.6550 64° Northeast 535 616 33,900 900 Climbing Boston Center
06:01PM 42.5392 -70.4794 64° Northeast 525 604 34,900 540 Climbing Boston Center
06:02PM 42.6025 -70.3031 64° Northeast 521 600 35,000  Climbing Boston Center
06:03PM 42.6664 -70.1211 64° Northeast 531 611 35,000  Level Boston Center
06:04PM 42.7281 -69.9378 65° Northeast 533 613 35,000  Level Boston Center
06:05PM 42.7925 -69.7567 64° Northeast 532 612 35,000  Level Boston Center
06:07PM 42.8542 -69.5778 65° Northeast 533 613 35,000  Level Boston Center
06:08PM 42.9189 -69.3978 64° Northeast 532 612 35,000  Level Boston Center
06:09PM 42.9986 -69.1756 64° Northeast 537 618 35,000  Level Boston Center
06:10PM 43.0661 -68.9914 63° Northeast 539 620 35,000  Level Boston Center
06:10PM 43.1167 -68.8333 66° East 540 621 35,000 -60 Level Moncton Center
06:11PM 43.1667 -68.6500 69° East 540 621 34,900  Descending Moncton Center
06:12PM 43.2500 -68.4833 55° Northeast 540 621 35,000  Climbing Moncton Center
06:13PM 43.3000 -68.3000 69° East 540 621 35,000  Level Moncton Center
06:14PM 43.3667 -68.1000 65° Northeast 540 621 35,000  Level Moncton Center
06:15PM 43.4333 -67.9167 63° Northeast 540 621 35,000  Level Moncton Center
06:16PM 43.5000 -67.7333 63° Northeast 540 621 35,000  Level Moncton Center
06:17PM 43.5667 -67.5333 65° Northeast 540 621 35,000  Level Moncton Center
06:18PM 43.6500 -67.3333 60° Northeast 550 633 35,000  Level Moncton Center
06:19PM 43.7000 -67.1500 69° East 550 633 35,000  Level Moncton Center
06:20PM 43.7667 -66.9667 63° Northeast 550 633 35,000  Level Moncton Center
06:21PM 43.8500 -66.7667 60° Northeast 550 633 35,000  Level Moncton Center
06:22PM 43.9000 -66.5500 72° East 560 644 35,000  Level Moncton Center
06:23PM 43.9667 -66.3667 63° Northeast 560 644 35,000  Level Moncton Center
06:24PM 44.0333 -66.1667 65° Northeast 560 644 35,000  Level Moncton Center
06:25PM 44.1000 -65.9833 63° Northeast 560 644 35,000  Level Moncton Center
06:26PM 44.1667 -65.7667 67° East 570 656 35,000  Level Moncton Center
06:27PM 44.2333 -65.5833 63° Northeast 570 656 35,000  Level Moncton Center
06:28PM 44.3000 -65.3833 65° Northeast 570 656 35,000  Level Moncton Center
06:29PM 44.3667 -65.1667 67° East 570 656 35,000  Level Moncton Center
06:31PM 44.4833 -64.7667 68° East 580 667 35,000  Level Gander Center
06:32PM 44.5667 -64.5500 62° Northeast 580 667 35,000  Level Gander Center
06:33PM 44.6167 -64.3667 69° East 580 667 35,000  Level Gander Center
06:34PM 44.6667 -64.1333 73° East 580 667 35,000  Level Gander Center
06:35PM 44.7500 -63.9500 57° Northeast 580 667 35,000  Level Gander Center
06:36PM 44.8000 -63.7167 73° East 580 667 35,000  Level Gander Center
06:37PM 44.8667 -63.5333 63° Northeast 580 667 35,000  Level Gander Center
06:38PM 44.9333 -63.3333 65° Northeast 580 667 35,000  Level Gander Center
06:39PM 45.0167 -63.1500 57° Northeast 580 667 35,000  Level Gander Center
06:40PM 45.1000 -62.9333 61° Northeast 580 667 35,000  Level Gander Center
06:41PM 45.1833 -62.7500 57° Northeast 570 656 35,000  Level Gander Center
06:42PM 45.2500 -62.5667 63° Northeast 570 656 35,000  Level Gander Center
06:43PM 45.3333 -62.3500 61° Northeast 570 656 35,000  Level Gander Center
06:44PM 45.4167 -62.1667 57° Northeast 570 656 35,000  Level Gander Center
06:45PM 45.5000 -61.9500 61° Northeast 570 656 35,000  Level Gander Center
06:46PM 45.5833 -61.7667 57° Northeast 570 656 35,000  Level Gander Center
06:47PM 45.6667 -61.5667 59° Northeast 570 656 35,000  Level Gander Center
06:48PM 45.7333 -61.3500 66° East 570 656 35,000  Level Moncton Center
06:49PM 45.8167 -61.1500 59° Northeast 570 656 35,000  Level Moncton Center
06:50PM 45.8833 -60.9667 62° Northeast 570 656 35,000  Level Moncton Center
06:51PM 45.9667 -60.7667 59° Northeast 570 656 35,000  Level Moncton Center
06:52PM 46.0500 -60.5667 59° Northeast 570 656 35,000  Level Moncton Center
06:53PM 46.1167 -60.3667 64° Northeast 560 644 35,000  Level Moncton Center
06:54PM 46.2000 -60.1667 59° Northeast 560 644 35,000  Level Moncton Center
06:56PM 46.3333 -59.8000 62° Northeast 550 633 35,000  Level Gander Center
06:57PM 46.4167 -59.5833 61° Northeast 540 621 35,000  Level Gander Center
06:58PM 46.4833 -59.4167 60° Northeast 530 610 35,000  Level Gander Center
06:59PM 46.5500 -59.2500 60° Northeast 520 598 35,000  Level Gander Center
07:00PM 46.6167 -59.0333 66° East 520 598 35,000  Level Moncton Center
07:01PM 46.6667 -58.8667 66° East 510 587 35,000  Level Gander Center
07:02PM 46.7500 -58.6833 56° Northeast 510 587 35,000  Level Gander Center
07:03PM 46.8000 -58.5000 68° East 500 575 35,000  Level Gander Center
07:04PM 46.8167 -58.2833 84° East 500 575 35,000  Level Gander Center
07:05PM 46.8667 -58.1000 68° East 500 575 35,000  Level Gander Center
07:06PM 46.9000 -57.8833 77° East 510 587 35,000  Level Gander Center
07:07PM 46.9167 -57.6833 83° East 500 575 35,000  Level Gander Center
07:08PM 46.9500 -57.5167 74° East 500 575 35,000  Level Gander Center
07:09PM 46.9833 -57.2833 78° East 500 575 35,000  Level Gander Center
07:10PM 47.0167 -57.1167 74° East 500 575 35,000  Level Gander Center
07:11PM 47.0500 -56.9000 77° East 500 575 35,000  Level Gander Center
07:12PM 47.0833 -56.7167 75° East 500 575 35,000  Level Gander Center
07:13PM 47.1167 -56.5000 77° East 500 575 35,000  Level Gander Center
07:14PM 47.1333 -56.3167 82° East 490 564 35,000  Level Gander Center
07:15PM 47.1667 -56.1167 76° East 500 575 35,000  Level Gander Center
07:16PM 47.2000 -55.9167 76° East 490 564 35,000  Level Gander Center
07:17PM 47.2167 -55.7167 83° East 490 564 35,000  Level Gander Center
07:18PM 47.2500 -55.5167 76° East 490 564 35,000  Level Gander Center
07:19PM 47.2667 -55.3333 82° East 490 564 35,000  Level Moncton Center
07:20PM 47.3000 -55.1000 78° East 490 564 35,000  Level Moncton Center
07:21PM 47.3167 -54.9167 82° East 490 564 35,000  Level Moncton Center
07:23PM 47.3833 -54.5500 75° East 490 564 35,000 -480 Level Gander Center
07:24PM 47.4167 -54.3333 77° East 480 552 33,600 -1,980 Descending Gander Center
07:25PM 47.4333 -54.1667 82° East 470 541 31,100 -2,700 Descending Gander Center
07:26PM 47.4500 -53.9667 83° East 480 552 28,200 -3,000 Descending Gander Center
07:27PM 47.4667 -53.7667 83° East 470 541 25,100 -3,000 Descending Gander Center
07:28PM 47.4833 -53.5833 82° East 460 529 22,200 -3,000 Descending Gander Center
07:29PM 47.5000 -53.4167 82° East 440 506 19,100 -2,940 Descending Gander Center
07:30PM 47.5167 -53.2333 82° East 420 483 16,400 -3,180 Descending Gander Center
07:31PM 47.5500 -53.0500 75° East 400 460 12,800 -2,460 Descending Gander Center
07:32PM 47.5500 -52.9333 90° East 360 414 11,500 -2,040 Descending Gander Center
07:33PM 47.5500 -52.7833 90° East 320 368 8,800 -2,580 Descending Gander Center
07:34PM 47.5500 -52.6833 90° East 300 345 6,400 -2,820 Descending Gander Center
07:35PM 47.5500 -52.5500 90° East 280 322 3,200 -2,040 Descending Gander Center
07:36PM 47.6000 -52.5500 360° North 200 230 2,400 -720 Descending Gander Center
07:37PM 47.6167 -52.6000 296° West 120 138 1,800 -600 Descending Gander Center
07:38PM 47.6167 -52.6167 270° West 100 115 1,300 -600 Descending Gander Center
07:39PM 47.6167 -52.6667 270° West 110 127 700 -480 Descending Gander Center
07:40PM 47.6000 -52.7167 244° Southwest 110 127 400 -300 Descending Gander Center